Original METAR for KORH:
272254Z 22009KT 10SM CLR M07/M16 A3020 RMK AO2 SLP249 T10721156

Wind: 220° at 9 knots
Visibility: 10 statute miles
Sky conditions: Clear
Temperature: 19.4°F
Dew Point: 3.2°F
Altimeter: 30.20

Remarks:
-- METAR generated by an automated station with a precipitation discriminator.
-- Sea level pressure: 1,024.9 millibars.
-- Precise hourly temperature and dew point: -7.2°C / -15.6°C

NOTE:
This METAR was retrieved from metars.com at:
http://www.metars.com/stations/KORH.html


Cessnas2Oshkosh, C2O, CessnaBaseCamp and The Pirep | Testimonials | Donations | FAQ | Privacy | Contact Us
are trademarks of Cessnas 2 Oshkosh, Inc. - Dothan, AL Copyright © 2008 - 2022 Cessnas 2 Oshkosh, Inc. All rights reserved.